Time;durP1;ratioP1;P1;durP2;ratioP2;P2;SDS_P1;SDS_P2;PMS_P1;PMS_P2;Temp;Humidity;BMP_temperature;BMP_pressure;BME280_temperature;BME280_humidity;BME280_pressure;Samples;Min_cycle;Max_cycle;Signal;HPM_P1;HPM_P2
2022/06/01 00:00:25;;;;;;;2.07;0.90;;;9.10;99.90;;;;;;5014172;28;20169;-85
2022/06/01 00:02:51;;;;;;;2.30;1.37;;;9.20;99.90;;;;;;5013899;28;20506;-84
2022/06/01 00:05:16;;;;;;;1.60;1.43;;;9.30;99.90;;;;;;5013683;28;20453;-86
2022/06/01 00:07:42;;;;;;;4.00;1.50;;;9.20;99.90;;;;;;5013637;28;20181;-84
2022/06/01 00:10:08;;;;;;;2.23;1.33;;;9.20;99.90;;;;;;5013813;28;20181;-86
2022/06/01 00:12:34;;;;;;;2.60;0.97;;;9.20;99.90;;;;;;5013750;28;20210;-86
2022/06/01 00:15:03;;;;;;;3.20;1.67;;;9.10;99.90;;;;;;5013878;28;20508;-86
2022/06/01 00:17:28;;;;;;;3.10;1.60;;;9.00;99.90;;;;;;5013599;28;20417;-83
2022/06/01 00:19:54;;;;;;;3.20;1.20;;;9.00;99.90;;;;;;4995873;28;20475;-86
2022/06/01 00:22:22;;;;;;;3.13;1.60;;;9.00;99.90;;;;;;5013690;28;20170;-85
2022/06/01 00:24:48;;;;;;;2.40;1.53;;;8.90;99.90;;;;;;5013723;28;20178;-87
2022/06/01 00:27:15;;;;;;;6.37;1.80;;;9.00;99.90;;;;;;5013381;28;20415;-85
2022/06/01 00:29:41;;;;;;;6.43;1.70;;;8.90;99.90;;;;;;5013249;28;20218;-86
2022/06/01 00:32:11;;;;;;;3.50;1.70;;;8.90;99.90;;;;;;4995949;28;20973;-84
2022/06/01 00:34:38;;;;;;;2.57;2.10;;;8.90;99.90;;;;;;5005445;28;20453;-86
2022/06/01 00:37:04;;;;;;;2.00;1.50;;;8.90;99.90;;;;;;5002975;28;20913;-86
2022/06/01 00:39:30;;;;;;;3.60;1.10;;;9.00;99.90;;;;;;5013311;28;20421;-86
2022/06/01 00:42:17;;;;;;;4.37;1.60;;;9.00;99.90;;;;;;5013405;28;20204;-86
2022/06/01 00:44:43;;;;;;;4.40;2.07;;;9.00;99.90;;;;;;5013320;28;20417;-86
2022/06/01 00:47:10;;;;;;;10.43;1.80;;;9.00;99.90;;;;;;5013244;28;20717;-85
2022/06/01 00:49:39;;;;;;;3.10;2.80;;;9.00;99.90;;;;;;5013306;28;20818;-85
2022/06/01 00:52:06;;;;;;;2.57;0.93;;;8.90;99.90;;;;;;5012813;28;20567;-87
2022/06/01 00:54:31;;;;;;;2.70;1.30;;;8.90;99.90;;;;;;5013365;28;20532;-86
2022/06/01 00:57:10;;;;;;;1.73;1.50;;;8.90;99.90;;;;;;5013130;28;20515;-86
2022/06/01 00:59:40;;;;;;;4.10;1.07;;;8.90;99.90;;;;;;5013299;28;20171;-86
2022/06/01 01:02:07;;;;;;;2.00;0.80;;;8.90;99.90;;;;;;5013173;28;20425;-84
2022/06/01 01:04:35;;;;;;;1.27;1.03;;;8.90;99.90;;;;;;5013192;28;20608;-84
2022/06/01 01:07:06;;;;;;;1.83;1.03;;;9.00;99.90;;;;;;5012678;28;20837;-83
2022/06/01 01:09:33;;;;;;;1.90;0.90;;;9.00;99.90;;;;;;5013215;28;20418;-84
2022/06/01 01:12:05;;;;;;;1.93;1.10;;;9.00;99.90;;;;;;5013139;28;20410;-84
2022/06/01 01:14:32;;;;;;;2.67;0.83;;;9.00;99.90;;;;;;5013156;28;20443;-83
2022/06/01 01:16:59;;;;;;;2.53;1.00;;;9.00;99.90;;;;;;5013002;28;20422;-84
2022/06/01 01:19:46;;;;;;;2.70;1.40;;;9.00;99.90;;;;;;5013024;28;20415;-84
2022/06/01 01:22:31;;;;;;;2.00;1.33;;;9.00;99.90;;;;;;5012941;28;20452;-82
2022/06/01 01:25:20;;;;;;;1.20;1.07;;;8.90;99.90;;;;;;5013038;28;20499;-84
2022/06/01 01:27:47;;;;;;;2.97;1.70;;;8.90;99.90;;;;;;5013796;28;20424;-84
2022/06/01 01:30:40;;;;;;;1.80;1.40;;;8.90;99.90;;;;;;5017815;28;20464;-84
2022/06/01 01:33:13;;;;;;;2.13;1.23;;;8.80;99.90;;;;;;5014199;28;20427;-85
2022/06/01 01:35:40;;;;;;;2.03;0.80;;;8.80;99.90;;;;;;5012623;28;20953;-84
2022/06/01 01:38:16;;;;;;;1.43;1.07;;;8.90;99.90;;;;;;4995969;28;20503;-85
2022/06/01 01:40:41;;;;;;;2.47;0.80;;;8.90;99.90;;;;;;5024622;28;20824;-84
2022/06/01 01:43:07;;;;;;;3.33;1.23;;;8.80;99.90;;;;;;4997405;28;20468;-88
2022/06/01 01:45:36;;;;;;;3.80;0.90;;;8.80;99.90;;;;;;4994914;28;20584;-88
2022/06/01 01:48:01;;;;;;;3.23;1.37;;;8.70;99.90;;;;;;4995101;28;20179;-88
2022/06/01 01:50:27;;;;;;;3.33;0.97;;;8.80;99.90;;;;;;5012657;28;20415;-87
2022/06/01 01:52:53;;;;;;;2.07;1.30;;;8.80;99.90;;;;;;5012945;28;20626;-88
2022/06/01 01:55:41;;;;;;;1.37;0.97;;;8.70;99.90;;;;;;4995444;28;20753;-86
2022/06/01 01:58:42;;;;;;;1.50;0.97;;;8.70;99.90;;;;;;5012795;28;20419;-82
2022/06/01 02:01:34;;;;;;;1.90;0.90;;;8.60;99.90;;;;;;4995208;28;20425;-82
2022/06/01 02:06:03;;;;;;;2.10;1.20;;;8.50;99.90;;;;;;4998131;28;20533;-82
2022/06/01 02:06:55;;;;;;;2.17;1.30;;;8.50;99.90;;;;;;5015903;28;20421;-82
2022/06/01 02:09:21;;;;;;;1.93;1.17;;;8.50;99.90;;;;;;4998645;28;20434;-82
2022/06/01 02:14:55;;;;;;;2.93;0.80;;;8.50;99.90;;;;;;5016516;28;20201;-87
2022/06/01 02:17:41;;;;;;;3.03;1.20;;;8.40;99.90;;;;;;5015969;28;20409;-83
2022/06/01 02:20:15;;;;;;;2.03;1.30;;;8.40;99.90;;;;;;5015535;28;20405;-87
2022/06/01 02:22:41;;;;;;;1.67;0.57;;;8.40;99.90;;;;;;5015705;28;21011;-85
2022/06/01 02:25:11;;;;;;;1.57;0.90;;;8.30;99.90;;;;;;5015970;28;20508;-81
2022/06/01 02:27:39;;;;;;;1.00;0.83;;;8.30;99.90;;;;;;4997873;28;20418;-82
2022/06/01 02:30:11;;;;;;;1.53;1.03;;;8.40;99.90;;;;;;5015648;28;20518;-86
2022/06/01 02:32:40;;;;;;;2.40;1.10;;;8.40;99.90;;;;;;5015331;28;20428;-87
2022/06/01 02:35:08;;;;;;;2.47;1.10;;;8.40;99.90;;;;;;5015420;28;20423;-87
2022/06/01 02:37:36;;;;;;;2.30;1.10;;;8.40;99.90;;;;;;4998868;28;20933;-85
2022/06/01 02:40:08;;;;;;;1.87;1.13;;;8.30;99.90;;;;;;5018432;28;20424;-83
2022/06/01 02:42:34;;;;;;;1.33;0.93;;;8.30;99.90;;;;;;5015598;28;20479;-86
2022/06/01 02:45:01;;;;;;;2.13;1.30;;;8.40;99.90;;;;;;5015507;28;20988;-82
2022/06/01 02:47:33;;;;;;;1.83;0.50;;;8.50;99.90;;;;;;5014993;28;20209;-85
2022/06/01 02:49:59;;;;;;;1.60;1.27;;;8.50;99.90;;;;;;5015032;28;20489;-86
2022/06/01 02:52:26;;;;;;;2.23;1.03;;;8.40;99.90;;;;;;5015135;28;20473;-86
2022/06/01 02:54:52;;;;;;;1.80;0.97;;;8.20;99.90;;;;;;5015380;28;20492;-84
2022/06/01 02:57:18;;;;;;;2.10;1.23;;;8.10;99.90;;;;;;5015168;28;20416;-84
2022/06/01 02:59:44;;;;;;;1.00;0.83;;;8.10;99.90;;;;;;5021686;28;20409;-85
2022/06/01 03:02:10;;;;;;;1.93;1.10;;;8.10;99.90;;;;;;5017917;28;20468;-83
2022/06/01 03:04:40;;;;;;;1.80;1.13;;;8.10;99.90;;;;;;5002639;28;20619;-85
2022/06/01 03:07:07;;;;;;;1.50;1.00;;;8.10;99.90;;;;;;5021409;28;20529;-85
2022/06/01 03:09:32;;;;;;;1.70;1.27;;;8.10;99.90;;;;;;5015052;28;20426;-85
2022/06/01 03:11:59;;;;;;;1.90;1.20;;;8.10;99.90;;;;;;5014811;28;20505;-86
2022/06/01 03:14:27;;;;;;;1.70;0.93;;;8.20;99.90;;;;;;5013746;28;20177;-84
2022/06/01 03:16:53;;;;;;;1.63;1.23;;;8.10;99.90;;;;;;4997138;28;20445;-83
2022/06/01 03:19:19;;;;;;;2.30;1.03;;;8.00;99.90;;;;;;4997023;28;20773;-84
2022/06/01 03:21:44;;;;;;;1.67;1.30;;;8.00;99.90;;;;;;4996799;28;20269;-83
2022/06/01 03:24:10;;;;;;;3.53;0.93;;;8.00;99.90;;;;;;5014521;28;20167;-85
2022/06/01 03:26:36;;;;;;;4.10;1.60;;;8.00;99.90;;;;;;5014674;28;20193;-85
2022/06/01 03:29:03;;;;;;;2.87;0.90;;;8.10;99.90;;;;;;5014509;28;20542;-85
2022/06/01 03:31:29;;;;;;;2.53;2.30;;;8.10;99.90;;;;;;5014498;28;20557;-85
2022/06/01 03:33:54;;;;;;;2.53;1.63;;;8.20;99.90;;;;;;5017148;28;20416;-81
2022/06/01 03:36:22;;;;;;;1.90;1.70;;;8.20;99.90;;;;;;5018870;28;20210;-82
2022/06/01 03:38:47;;;;;;;2.13;1.60;;;8.20;99.90;;;;;;5014532;28;20173;-84
2022/06/01 03:41:13;;;;;;;2.73;1.27;;;8.30;99.90;;;;;;4996579;28;20423;-84
2022/06/01 03:46:26;;;;;;;2.00;1.50;;;8.30;99.90;;;;;;5014450;28;20588;-84
2022/06/01 03:48:52;;;;;;;1.77;1.10;;;8.40;99.90;;;;;;5014187;28;20813;-84
2022/06/01 03:51:18;;;;;;;4.03;2.00;;;8.50;99.90;;;;;;5013950;28;20413;-82
2022/06/01 03:53:46;;;;;;;2.10;1.77;;;8.50;99.90;;;;;;5013813;28;20240;-85
2022/06/01 03:56:12;;;;;;;4.77;1.43;;;8.60;99.90;;;;;;4996531;28;20176;-85
2022/06/01 03:58:39;;;;;;;2.10;1.43;;;8.70;99.90;;;;;;5013923;28;20505;-84
2022/06/01 04:01:06;;;;;;;1.80;1.53;;;8.80;99.90;;;;;;4996461;28;20516;-84
2022/06/01 04:03:32;;;;;;;2.70;1.63;;;8.80;99.90;;;;;;4996122;28;20300;-83
2022/06/01 04:05:57;;;;;;;2.97;2.10;;;8.90;99.90;;;;;;5013651;28;21001;-84
2022/06/01 04:08:25;;;;;;;3.50;1.80;;;9.00;99.90;;;;;;5013698;28;20182;-82
2022/06/01 04:10:50;;;;;;;2.20;2.00;;;9.10;99.90;;;;;;5013967;28;20170;-84
2022/06/01 04:13:17;;;;;;;2.80;1.83;;;9.30;99.90;;;;;;4982549;28;20426;-86
2022/06/01 04:15:43;;;;;;;2.00;1.07;;;9.40;99.90;;;;;;4996263;28;20580;-86
2022/06/01 04:18:12;;;;;;;2.67;1.63;;;9.50;99.90;;;;;;4996595;28;20423;-85
2022/06/01 04:20:38;;;;;;;2.10;1.90;;;9.70;99.90;;;;;;5013413;28;20221;-86
2022/06/01 04:23:04;;;;;;;5.00;1.53;;;9.90;99.90;;;;;;5013655;28;20556;-86
2022/06/01 04:25:32;;;;;;;3.17;1.63;;;10.10;99.90;;;;;;5013367;28;20506;-86
2022/06/01 04:27:58;;;;;;;3.30;1.73;;;10.30;99.90;;;;;;5013640;28;20175;-85
2022/06/01 04:30:23;;;;;;;2.87;1.40;;;10.50;99.90;;;;;;5013297;28;20558;-85
2022/06/01 04:32:51;;;;;;;1.70;0.70;;;10.60;99.90;;;;;;5013600;28;20226;-87
2022/06/01 04:35:18;;;;;;;2.37;1.60;;;10.80;99.90;;;;;;4995714;28;20201;-86
2022/06/01 04:37:44;;;;;;;2.40;1.37;;;10.90;99.90;;;;;;4995913;28;20456;-86
2022/06/01 04:40:11;;;;;;;2.13;0.93;;;10.90;99.90;;;;;;4995668;28;20511;-85
2022/06/01 04:42:38;;;;;;;3.10;1.53;;;10.90;99.90;;;;;;4995619;28;20215;-85
2022/06/01 04:45:04;;;;;;;5.30;1.70;;;10.90;99.90;;;;;;5013352;28;20912;-82
2022/06/01 04:47:30;;;;;;;2.40;0.97;;;10.90;99.90;;;;;;4995717;28;20424;-82
2022/06/01 04:49:55;;;;;;;2.93;1.27;;;10.80;99.90;;;;;;5013032;28;20421;-81
2022/06/01 04:52:21;;;;;;;3.13;1.50;;;10.70;99.90;;;;;;5013336;28;20168;-85
2022/06/01 04:54:46;;;;;;;2.67;1.23;;;10.80;99.90;;;;;;5013275;28;20296;-83
2022/06/01 04:57:12;;;;;;;5.70;1.80;;;10.80;99.90;;;;;;4995687;28;20180;-83
2022/06/01 04:59:37;;;;;;;2.60;1.70;;;10.80;99.90;;;;;;5013251;28;20643;-84
2022/06/01 05:02:03;;;;;;;2.33;2.00;;;10.80;99.90;;;;;;5016854;28;20254;-84
2022/06/01 05:04:29;;;;;;;5.40;2.10;;;10.80;99.90;;;;;;5020991;28;20250;-85
2022/06/01 05:06:56;;;;;;;1.97;0.97;;;10.90;99.90;;;;;;5023767;28;20446;-83
2022/06/01 05:09:22;;;;;;;2.83;1.90;;;10.80;99.90;;;;;;5004328;28;20528;-84
2022/06/01 05:11:47;;;;;;;4.60;1.37;;;10.80;99.90;;;;;;5021959;28;20423;-84
2022/06/01 05:14:13;;;;;;;2.80;1.70;;;10.80;99.90;;;;;;5023333;28;20476;-84
2022/06/01 05:16:39;;;;;;;3.17;1.87;;;10.70;99.90;;;;;;5021682;28;20188;-85
2022/06/01 05:19:04;;;;;;;6.00;2.50;;;10.60;99.90;;;;;;5004117;28;20624;-84
2022/06/01 05:21:30;;;;;;;6.83;4.17;;;10.60;99.90;;;;;;5023138;28;20183;-88
2022/06/01 05:23:56;;;;;;;4.33;3.17;;;10.50;99.90;;;;;;5021391;28;20510;-87
2022/06/01 05:26:21;;;;;;;6.63;2.67;;;10.50;99.90;;;;;;5022900;28;20198;-89
2022/06/01 05:28:47;;;;;;;3.40;2.10;;;10.30;99.90;;;;;;5022955;28;20187;-88
2022/06/01 05:31:14;;;;;;;4.70;3.17;;;10.30;99.90;;;;;;5021205;28;20253;-85
2022/06/01 05:33:43;;;;;;;3.53;2.40;;;10.30;99.90;;;;;;5022986;28;20194;-89
2022/06/01 05:36:09;;;;;;;4.43;3.47;;;10.30;99.90;;;;;;5022618;28;20424;-87
2022/06/01 05:38:34;;;;;;;4.23;2.27;;;10.30;99.90;;;;;;5005629;28;20505;-87
2022/06/01 05:41:01;;;;;;;3.77;2.20;;;10.30;99.90;;;;;;5026627;28;20450;-87
2022/06/01 05:43:26;;;;;;;4.27;2.40;;;10.30;99.90;;;;;;5026150;28;20203;-87
2022/06/01 05:45:52;;;;;;;4.53;2.67;;;10.30;99.90;;;;;;5024944;28;20432;-85
2022/06/01 05:48:19;;;;;;;4.07;2.97;;;10.30;99.90;;;;;;5026831;28;20179;-88
2022/06/01 05:50:45;;;;;;;4.03;2.70;;;10.30;99.90;;;;;;5025492;28;20183;-85
2022/06/01 05:53:10;;;;;;;6.37;3.60;;;10.20;99.90;;;;;;5024959;28;20424;-83
2022/06/01 05:55:37;;;;;;;5.10;3.87;;;10.20;99.90;;;;;;5026605;28;20185;-85
2022/06/01 05:58:20;;;;;;;4.13;3.00;;;10.20;99.90;;;;;;5025361;28;20228;-85
2022/06/01 06:00:47;;;;;;;5.13;2.90;;;10.20;99.90;;;;;;5008265;28;20991;-85
2022/06/01 06:03:13;;;;;;;6.87;3.00;;;10.20;99.90;;;;;;5024435;28;20478;-86
2022/06/01 06:08:24;;;;;;;4.20;3.07;;;10.20;99.90;;;;;;5025556;28;20402;-87
2022/06/01 06:10:49;;;;;;;7.93;4.60;;;10.20;99.90;;;;;;5024822;28;20807;-83
2022/06/01 06:13:15;;;;;;;7.33;5.00;;;10.20;99.90;;;;;;5008718;28;20423;-85
2022/06/01 06:15:41;;;;;;;7.90;5.10;;;10.30;99.90;;;;;;5024871;28;20178;-86
2022/06/01 06:18:07;;;;;;;7.90;5.63;;;10.20;99.90;;;;;;5025134;28;20551;-84
2022/06/01 06:20:33;;;;;;;7.67;6.67;;;10.30;99.90;;;;;;5025993;28;20178;-84
2022/06/01 06:23:01;;;;;;;11.40;8.27;;;10.30;99.90;;;;;;5024399;28;20234;-84
2022/06/01 06:25:27;;;;;;;9.10;7.50;;;10.20;99.90;;;;;;5024667;28;20405;-86
2022/06/01 06:27:52;;;;;;;13.53;7.90;;;10.20;99.90;;;;;;5008224;28;20444;-84
2022/06/01 06:30:19;;;;;;;9.60;7.40;;;10.20;99.90;;;;;;5005399;28;20268;-84
2022/06/01 06:32:45;;;;;;;9.80;7.20;;;10.30;99.90;;;;;;5025292;28;20175;-87
2022/06/01 06:35:14;;;;;;;13.43;10.30;;;10.20;99.90;;;;;;5023800;28;20474;-91
2022/06/01 06:37:39;;;;;;;10.40;7.80;;;10.20;99.90;;;;;;5000384;28;20426;-82
2022/06/01 06:40:06;;;;;;;10.10;8.93;;;10.20;99.90;;;;;;5015649;28;20773;-84
2022/06/01 06:42:31;;;;;;;11.70;8.40;;;10.20;99.90;;;;;;5015431;28;20210;-83
2022/06/01 06:44:57;;;;;;;9.30;7.60;;;10.20;99.90;;;;;;5015494;28;20437;-83
2022/06/01 06:47:23;;;;;;;9.30;8.10;;;10.20;99.90;;;;;;5015309;28;20176;-83
2022/06/01 06:49:48;;;;;;;11.00;7.50;;;10.20;99.90;;;;;;5014645;28;20215;-83
2022/06/01 06:52:14;;;;;;;11.03;8.17;;;10.20;99.90;;;;;;4997727;28;20225;-83
2022/06/01 06:54:40;;;;;;;11.23;7.80;;;10.30;99.90;;;;;;5015047;28;20175;-83
2022/06/01 06:57:06;;;;;;;10.60;6.90;;;10.30;99.90;;;;;;5014628;28;20550;-82
2022/06/01 06:59:31;;;;;;;9.20;8.27;;;10.30;99.90;;;;;;5015450;28;20246;-83
2022/06/01 07:01:57;;;;;;;11.10;9.07;;;10.40;99.90;;;;;;5015200;28;20954;-83
2022/06/01 07:04:22;;;;;;;8.77;7.87;;;10.50;99.90;;;;;;5014749;28;20227;-82
2022/06/01 07:06:48;;;;;;;10.03;8.60;;;10.50;99.90;;;;;;5015010;28;20172;-82
2022/06/01 07:09:14;;;;;;;10.30;9.10;;;10.50;99.90;;;;;;5015043;28;20222;-82
2022/06/01 07:11:39;;;;;;;9.07;8.13;;;10.60;99.90;;;;;;5014740;28;21111;-80
2022/06/01 07:14:05;;;;;;;9.27;8.37;;;10.60;99.90;;;;;;5029319;28;20325;-81
2022/06/01 07:16:33;;;;;;;9.83;7.97;;;10.70;99.90;;;;;;5034353;28;20183;-80
2022/06/01 07:19:00;;;;;;;8.93;8.03;;;10.60;99.90;;;;;;5033813;28;20171;-80
2022/06/01 07:21:27;;;;;;;8.57;7.43;;;10.80;99.90;;;;;;5034251;28;20422;-82
2022/06/01 07:23:52;;;;;;;7.80;7.00;;;10.80;99.90;;;;;;5034253;28;20528;-83
2022/06/01 07:26:28;;;;;;;8.50;7.63;;;10.90;99.90;;;;;;5016525;28;20463;-82
2022/06/01 07:28:53;;;;;;;7.80;6.90;;;11.00;99.90;;;;;;5016338;28;20175;-81
2022/06/01 07:31:20;;;;;;;9.93;7.70;;;11.10;99.90;;;;;;5033810;28;20461;-81
2022/06/01 07:33:46;;;;;;;9.70;8.03;;;11.20;99.90;;;;;;5033780;28;20176;-81
2022/06/01 07:36:15;;;;;;;10.03;7.83;;;11.30;99.90;;;;;;5015844;28;20482;-82
2022/06/01 07:44:32;;;;;;;8.87;7.97;;;11.70;99.90;;;;;;5032999;28;20942;-87
2022/06/01 07:46:58;;;;;;;9.40;8.20;;;11.90;99.90;;;;;;5048001;28;20464;-85
2022/06/01 07:49:23;;;;;;;10.60;9.47;;;12.10;99.90;;;;;;5032407;28;20776;-83
2022/06/01 07:51:49;;;;;;;9.23;8.33;;;12.20;99.90;;;;;;5027529;28;20425;-83
2022/06/01 07:54:16;;;;;;;8.53;7.60;;;12.30;99.90;;;;;;4995817;28;20663;-85
2022/06/01 07:56:42;;;;;;;9.70;7.07;;;12.10;99.90;;;;;;5013663;28;20779;-93
2022/06/01 07:59:08;;;;;;;9.30;8.50;;;12.10;99.90;;;;;;4995116;28;20421;-86
2022/06/01 08:01:35;;;;;;;8.83;7.87;;;11.80;99.90;;;;;;5012161;28;20175;-86
2022/06/01 08:04:02;;;;;;;8.50;7.70;;;11.60;99.90;;;;;;5013016;28;20887;-85
2022/06/01 08:06:29;;;;;;;6.93;6.23;;;11.50;99.90;;;;;;5014427;28;20422;-88
2022/06/01 08:08:55;;;;;;;8.43;7.53;;;11.50;99.90;;;;;;5013119;28;20437;-85
2022/06/01 08:13:06;;;;;;;8.63;7.73;;;11.50;99.90;;;;;;5016390;28;20418;-87
2022/06/01 08:14:12;;;;;;;9.13;8.07;;;11.50;99.90;;;;;;5032148;28;20411;-86
2022/06/01 08:16:42;;;;;;;12.03;8.30;;;11.40;99.90;;;;;;5014341;28;20911;-88
2022/06/01 08:19:08;;;;;;;8.33;7.53;;;11.40;99.90;;;;;;5031871;28;20466;-86
2022/06/01 08:21:36;;;;;;;10.63;7.73;;;11.40;99.90;;;;;;5014655;28;20422;-86
2022/06/01 08:24:02;;;;;;;9.00;8.13;;;11.50;99.90;;;;;;5014758;28;20470;-85
2022/06/01 08:26:28;;;;;;;9.90;7.57;;;11.50;99.90;;;;;;5032398;28;20438;-86
2022/06/01 08:28:54;;;;;;;8.17;7.27;;;11.70;99.90;;;;;;5032672;28;20835;-86
2022/06/01 08:31:19;;;;;;;8.50;6.37;;;11.90;99.90;;;;;;5032719;28;20697;-84
2022/06/01 08:33:45;;;;;;;8.30;7.10;;;12.30;99.90;;;;;;5014705;28;20179;-84
2022/06/01 08:36:10;;;;;;;9.40;7.67;;;12.80;99.90;;;;;;5029144;28;20181;-86
2022/06/01 08:38:36;;;;;;;6.47;5.87;;;13.70;99.90;;;;;;5013768;28;20183;-86
2022/06/01 08:41:05;;;;;;;5.67;5.17;;;15.60;99.90;;;;;;5014215;28;20187;-83
2022/06/01 08:43:36;;;;;;;4.87;4.37;;;15.60;69.50;;;;;;5031623;28;20999;-83
2022/06/01 08:46:03;;;;;;;4.63;4.23;;;15.90;73.00;;;;;;5014082;28;20457;-85
2022/06/01 08:48:42;;;;;;;5.07;4.57;;;15.20;99.90;;;;;;5014033;28;20425;-85
2022/06/01 08:51:08;;;;;;;7.00;4.33;;;14.60;99.90;;;;;;5032068;28;20992;-86
2022/06/01 08:53:34;;;;;;;4.97;4.40;;;14.40;99.90;;;;;;5031708;28;20422;-87
2022/06/01 08:56:15;;;;;;;4.80;4.40;;;14.20;99.90;;;;;;5032262;28;20406;-84
2022/06/01 08:59:09;;;;;;;5.47;4.97;;;14.40;99.90;;;;;;5013941;28;20433;-86
2022/06/01 09:01:56;;;;;;;4.37;3.70;;;14.80;99.90;;;;;;5017868;28;20473;-87
2022/06/01 09:04:55;;;;;;;4.83;3.63;;;14.70;99.90;;;;;;5031448;28;20485;-87
2022/06/01 09:07:36;;;;;;;3.53;3.23;;;14.60;99.90;;;;;;5031966;28;20423;-87
2022/06/01 09:10:35;;;;;;;2.70;1.90;;;15.10;99.90;;;;;;5013967;28;20995;-87
2022/06/01 09:13:10;;;;;;;4.17;2.80;;;15.20;99.90;;;;;;5016717;28;20465;-86
2022/06/01 09:15:49;;;;;;;3.17;1.83;;;15.60;99.90;;;;;;5035769;28;20908;-84
2022/06/01 09:18:20;;;;;;;2.27;2.00;;;16.80;1.00;;;;;;5035471;28;20457;-84
2022/06/01 09:23:30;;;;;;;2.27;1.50;;;18.80;1.00;;;;;;5035430;28;20469;-86
2022/06/01 09:25:57;;;;;;;2.20;1.90;;;18.80;92.10;;;;;;5029037;28;20519;-86
2022/06/01 09:28:24;;;;;;;2.73;1.70;;;18.30;1.00;;;;;;5024171;28;20182;-82
2022/06/01 09:31:22;;;;;;;1.67;1.27;;;18.80;1.00;;;;;;5016297;28;20544;-84
2022/06/01 09:33:48;;;;;;;2.33;1.73;;;18.30;1.00;;;;;;5012958;28;20432;-83
2022/06/01 09:36:28;;;;;;;4.30;1.50;;;19.70;1.00;;;;;;5016417;28;20533;-83
2022/06/01 09:39:01;;;;;;;1.53;0.90;;;20.10;99.90;;;;;;5016509;28;20420;-84
2022/06/01 09:41:40;;;;;;;1.67;1.57;;;20.70;1.00;;;;;;5016327;28;20914;-84
2022/06/01 09:44:09;;;;;;;2.13;1.37;;;20.30;1.00;;;;;;5016086;28;21000;-83
2022/06/01 09:46:47;;;;;;;1.30;0.80;;;19.90;1.00;;;;;;5016259;28;20426;-83
2022/06/01 09:49:24;;;;;;;1.83;1.13;;;19.60;99.90;;;;;;5015941;28;20472;-83
2022/06/01 09:52:11;;;;;;;2.03;1.20;;;19.40;99.90;;;;;;5016128;28;20419;-82
2022/06/01 09:54:42;;;;;;;1.13;1.00;;;19.60;1.00;;;;;;5015551;28;20540;-83
2022/06/01 09:57:18;;;;;;;2.97;1.50;;;18.40;99.90;;;;;;5016085;28;20418;-82
2022/06/01 10:08:22;;;;;;;1.00;0.60;;;22.00;99.90;;;;;;5016129;28;20452;-84
2022/06/01 10:11:00;;;;;;;1.00;0.53;;;21.40;99.90;;;;;;5016018;28;20402;-85
2022/06/01 10:13:47;;;;;;;2.77;1.23;;;21.30;99.90;;;;;;5015665;28;20410;-86
2022/06/01 10:16:29;;;;;;;1.13;0.80;;;21.80;99.90;;;;;;5015863;28;20493;-87
2022/06/01 10:18:59;;;;;;;0.90;0.73;;;22.50;99.90;;;;;;5015244;28;20432;-83
2022/06/01 10:21:30;;;;;;;1.73;0.70;;;22.60;99.90;;;;;;5015560;28;20473;-86
2022/06/01 10:24:11;;;;;;;1.20;0.50;;;22.00;99.90;;;;;;5014855;28;21021;-86
2022/06/01 10:26:39;;;;;;;1.43;0.60;;;21.60;99.90;;;;;;5015499;28;20410;-87
2022/06/01 10:29:13;;;;;;;1.13;0.80;;;22.30;99.90;;;;;;5014966;28;20922;-85
2022/06/01 10:32:12;;;;;;;1.20;0.90;;;22.70;99.90;;;;;;5013726;28;20462;-83
2022/06/01 10:34:41;;;;;;;1.40;0.97;;;22.60;99.90;;;;;;5010979;28;20922;-85
2022/06/01 10:37:17;;;;;;;1.23;0.60;;;22.60;99.90;;;;;;5014890;28;20960;-83
2022/06/01 10:40:01;;;;;;;0.90;0.70;;;22.50;99.90;;;;;;5027623;28;20947;-86
2022/06/01 10:45:27;;;;;;;1.53;0.67;;;22.70;99.90;;;;;;5035194;28;20401;-84
2022/06/01 10:47:54;;;;;;;1.30;0.73;;;22.80;99.90;;;;;;5035376;28;20424;-84
2022/06/01 10:50:28;;;;;;;1.00;0.53;;;22.50;99.90;;;;;;5034808;28;20423;-84
2022/06/01 10:53:20;;;;;;;2.00;0.87;;;22.50;99.90;;;;;;5017454;28;20988;-86
2022/06/01 10:55:48;;;;;;;2.43;1.50;;;22.90;99.90;;;;;;5034915;28;20420;-85
2022/06/01 10:58:21;;;;;;;1.43;1.30;;;20.80;99.90;;;;;;5016946;28;20447;-85
2022/06/01 11:00:59;;;;;;;2.90;2.53;;;21.50;99.90;;;;;;5034882;28;20513;-84
2022/06/01 11:03:49;;;;;;;2.33;1.37;;;22.50;99.90;;;;;;5034421;28;20508;-85
2022/06/01 11:06:29;;;;;;;3.00;1.43;;;22.70;99.90;;;;;;5034812;28;20417;-84
2022/06/01 11:09:23;;;;;;;3.07;1.53;;;21.70;97.20;;;;;;5028638;28;20988;-84
2022/06/01 11:12:15;;;;;;;1.73;1.23;;;21.80;99.90;;;;;;5015161;28;20406;-85
2022/06/01 11:14:52;;;;;;;2.60;1.20;;;22.80;99.90;;;;;;5015167;28;20425;-85
2022/06/01 11:17:45;;;;;;;3.33;1.37;;;22.90;97.80;;;;;;5014762;28;20448;-85
2022/06/01 11:20:47;;;;;;;1.90;1.03;;;23.20;99.90;;;;;;5014241;28;20422;-87
2022/06/01 11:23:28;;;;;;;1.70;1.30;;;23.10;93.00;;;;;;5014656;28;20425;-83
2022/06/01 11:26:28;;;;;;;1.47;1.37;;;22.50;99.90;;;;;;5013972;28;20787;-86
2022/06/01 11:29:25;;;;;;;0.87;0.77;;;20.80;99.90;;;;;;5015780;28;20426;-85
2022/06/01 11:31:54;;;;;;;2.90;1.40;;;22.00;99.90;;;;;;4997801;28;20422;-85
2022/06/01 11:34:26;;;;;;;1.70;1.10;;;21.80;96.50;;;;;;5014549;28;20880;-86
2022/06/01 11:37:02;;;;;;;1.60;1.07;;;21.40;99.90;;;;;;4996882;28;20485;-85
2022/06/01 11:39:42;;;;;;;2.27;0.93;;;21.00;99.90;;;;;;5017032;28;20410;-88
2022/06/01 11:42:27;;;;;;;1.90;1.10;;;22.40;99.90;;;;;;4997169;28;20414;-88
2022/06/01 11:45:12;;;;;;;1.30;1.20;;;22.90;97.50;;;;;;5014728;28;20424;-87
2022/06/01 11:48:03;;;;;;;2.33;1.17;;;22.40;90.00;;;;;;5014698;28;20433;-96
2022/06/01 11:51:13;;;;;;;1.40;0.80;;;21.90;52.60;;;;;;5013294;28;20476;-83
2022/06/01 11:53:56;;;;;;;1.97;1.63;;;23.10;74.30;;;;;;4930634;29;20480;-87
2022/06/01 11:56:28;;;;;;;2.07;1.50;;;23.10;54.10;;;;;;5002461;28;20414;-87
2022/06/01 11:59:23;;;;;;;1.90;1.70;;;22.90;96.50;;;;;;5004190;28;20442;-87
2022/06/01 12:02:00;;;;;;;1.97;1.87;;;21.40;75.70;;;;;;5005048;28;20402;-86
2022/06/01 12:04:55;;;;;;;3.50;2.30;;;20.40;99.90;;;;;;5003519;28;20948;-89
2022/06/01 12:07:39;;;;;;;3.73;3.43;;;20.10;99.90;;;;;;5005192;28;20449;-90
2022/06/01 12:10:28;;;;;;;3.63;2.53;;;19.80;96.10;;;;;;5003771;28;20440;-84
2022/06/01 12:13:24;;;;;;;2.33;2.10;;;21.90;99.90;;;;;;4988925;28;20465;-84
2022/06/01 12:16:18;;;;;;;2.93;2.30;;;22.80;99.90;;;;;;5003357;28;20478;-86
2022/06/01 12:19:00;;;;;;;2.60;2.33;;;22.40;88.70;;;;;;4996579;28;20434;-84
2022/06/01 12:21:54;;;;;;;2.53;2.33;;;22.10;90.20;;;;;;5004307;28;20417;-83
2022/06/01 12:30:02;;;;;;;4.20;3.90;;;22.90;59.60;;;;;;5018060;28;20831;-84
2022/06/01 12:32:48;;;;;;;5.43;3.63;;;21.60;52.20;;;;;;5032591;28;20473;-83
2022/06/01 12:35:19;;;;;;;4.50;3.50;;;22.00;58.90;;;;;;5032137;28;20471;-84
2022/06/01 12:37:51;;;;;;;4.77;4.07;;;22.40;67.30;;;;;;5033621;28;20412;-85
2022/06/01 12:40:21;;;;;;;5.00;4.27;;;22.60;60.20;;;;;;5033129;28;20420;-84
2022/06/01 12:42:58;;;;;;;4.50;4.10;;;22.30;54.40;;;;;;5014958;28;20428;-87
2022/06/01 12:45:48;;;;;;;5.30;4.83;;;22.70;67.40;;;;;;5014900;28;20421;-88
2022/06/01 12:48:23;;;;;;;4.50;4.10;;;22.50;47.90;;;;;;5031058;28;20436;-83
2022/06/01 12:50:57;;;;;;;4.53;4.13;;;22.90;48.50;;;;;;5033349;28;20404;-93
2022/06/01 12:53:26;;;;;;;5.43;4.93;;;22.70;45.90;;;;;;5032891;28;20483;-84
2022/06/01 12:56:20;;;;;;;3.30;3.00;;;22.10;33.50;;;;;;5030144;28;20527;-86
2022/06/01 12:58:52;;;;;;;5.27;4.77;;;22.80;54.80;;;;;;5016679;28;20437;-87
2022/06/01 13:01:19;;;;;;;6.90;4.67;;;22.80;45.40;;;;;;5034131;28;20421;-86
2022/06/01 13:03:50;;;;;;;4.60;4.20;;;22.50;47.40;;;;;;5031934;28;20441;-87
2022/06/01 13:06:23;;;;;;;5.30;4.60;;;22.50;55.00;;;;;;5032610;28;20413;-84
2022/06/01 13:09:00;;;;;;;6.93;4.50;;;22.70;55.40;;;;;;5032130;28;20969;-86
2022/06/01 13:11:34;;;;;;;5.77;5.20;;;22.70;50.10;;;;;;5027880;28;20409;-87
2022/06/01 13:14:02;;;;;;;5.10;4.70;;;21.70;42.90;;;;;;5004177;28;21003;-84
2022/06/01 13:16:43;;;;;;;5.80;5.30;;;21.00;59.10;;;;;;5019990;28;20766;-85
2022/06/01 13:19:27;;;;;;;6.30;5.10;;;20.50;47.80;;;;;;5002392;28;20456;-83
2022/06/01 13:22:09;;;;;;;4.33;3.93;;;20.40;41.00;;;;;;5020979;28;20413;-86
2022/06/01 13:24:58;;;;;;;4.67;4.27;;;20.60;98.70;;;;;;5020550;28;20790;-83
2022/06/01 13:27:29;;;;;;;5.90;4.60;;;20.80;70.20;;;;;;5022101;28;20482;-85
2022/06/01 13:30:01;;;;;;;4.43;3.50;;;20.50;84.50;;;;;;5020848;28;20476;-84
2022/06/01 13:32:34;;;;;;;5.43;4.23;;;20.50;97.40;;;;;;5019973;28;20457;-87
2022/06/01 13:35:42;;;;;;;5.23;4.67;;;20.20;93.90;;;;;;5021182;28;20516;-83
2022/06/01 13:38:18;;;;;;;4.30;3.90;;;19.80;99.90;;;;;;5022081;28;20501;-87
2022/06/01 13:41:08;;;;;;;5.30;4.87;;;19.30;99.90;;;;;;5021858;28;20431;-84
2022/06/01 13:43:42;;;;;;;5.53;4.77;;;19.00;99.90;;;;;;5020830;28;20487;-86
2022/06/01 13:46:13;;;;;;;5.47;4.77;;;18.70;99.90;;;;;;5020141;28;20437;-91
2022/06/01 13:48:48;;;;;;;7.80;6.40;;;18.60;99.90;;;;;;5020831;28;20432;-83